Weather at Tel Nof Air Base

Public forecast

Using degrees Celsius for public forecast. Weather courtesy of forecast.io.

Closest aviation weather report (METAR) to Tel Nof Air Base

Closest report is Ben Gurion International Airport, 10.8 nm (20.1 km) NNE.

2024/05/20 21:20 (retrieved 26 minutes ago)

LLBG 202120Z 15004KT CAVOK 24/16 Q1009 NOSIG

Closest aviation forecast (TAF) to Tel Nof Air Base

Closest forecast is Ben Gurion International Airport, 10.8 nm (20.1 km) NNE.

2024/05/20 18:09 (retrieved 4 hours ago)

TAF TAF LLBG 201703Z 2018/2118 VRB04KT CAVOK BECMG 2022/2024 9000 SCT015 PROB40 TEMPO 2101/2105 18006KT 7000 BKN012 BECMG 2106/2108 28012KT CAVOK BECMG 2115/2117 VRB04KT TX30/2110Z TN21/2103Z